createdAt,value
2022-09-06T00:01:10.837Z,101003.06
2022-09-06T00:03:40.605Z,101005.97
2022-09-06T00:06:10.536Z,101004.72
2022-09-06T00:08:38.280Z,100995.94
2022-09-06T00:11:06.316Z,101006.63
2022-09-06T00:13:34.142Z,100997.22
2022-09-06T00:16:07.887Z,100995.34
2022-09-06T00:18:35.614Z,100993.25
2022-09-06T00:21:04.805Z,100992.84
2022-09-06T00:23:32.394Z,100984.06
2022-09-06T00:26:04.733Z,100989.03
2022-09-06T00:28:32.809Z,100984.44
2022-09-06T00:31:00.488Z,100987.16
2022-09-06T00:33:28.101Z,100973.59
2022-09-06T00:36:00.144Z,100981.09
2022-09-06T00:38:29.106Z,100973.16
2022-09-06T00:40:57.261Z,100980.69
2022-09-06T00:43:25.580Z,100976.31
2022-09-06T00:45:54.772Z,100964.81
2022-09-06T00:48:23.954Z,100966.69
2022-09-06T00:50:54.886Z,100964.41
2022-09-06T00:53:22.827Z,100968.16
2022-09-06T00:55:52.043Z,100962.31
2022-09-06T00:58:19.900Z,100961.69
2022-09-06T01:00:47.626Z,100955.84
2022-09-06T01:03:15.415Z,100963.97
2022-09-06T01:05:54.438Z,100967.94
2022-09-06T01:08:37.838Z,100960.19
2022-09-06T01:11:18.995Z,100959.75
2022-09-06T01:13:53.382Z,100946.63
2022-09-06T01:16:30.792Z,100957.03
2022-09-06T01:19:16.704Z,100953.69
2022-09-06T01:21:54.323Z,100954.31
2022-09-06T01:24:57.339Z,100951.59
2022-09-06T01:28:06.288Z,100950.16
2022-09-06T01:30:41.337Z,100948.03
2022-09-06T01:33:17.631Z,100943.22
2022-09-06T01:35:49.339Z,100946.34
2022-09-06T01:38:17.700Z,100937.78
2022-09-06T01:40:45.568Z,100945.47
2022-09-06T01:43:19.294Z,100936.09
2022-09-06T01:45:57.978Z,100934.78
2022-09-06T01:48:36.858Z,100930.81
2022-09-06T01:51:17.271Z,100930.41
2022-09-06T01:54:01.446Z,100927.47
2022-09-06T01:56:37.366Z,100933.47
2022-09-06T01:59:39.866Z,100930.34
2022-09-06T02:02:15.583Z,100936.34
2022-09-06T02:04:47.043Z,100934.22
2022-09-06T02:07:21.153Z,100939.19
2022-09-06T02:09:54.988Z,100942.31
2022-09-06T02:12:26.252Z,100940.00
2022-09-06T02:14:58.006Z,100946.66
2022-09-06T02:17:31.464Z,100948.91
2022-09-06T02:20:03.624Z,100955.56
2022-09-06T02:22:36.032Z,100970.09
2022-09-06T02:25:08.266Z,100979.44
2022-09-06T02:27:37.675Z,100989.41
2022-09-06T02:30:06.016Z,100985.25
2022-09-06T02:32:40.147Z,100997.28
2022-09-06T02:35:13.267Z,101000.19
2022-09-06T02:37:41.810Z,100989.56
2022-09-06T02:40:11.786Z,100991.00
2022-09-06T02:42:40.586Z,100988.88
2022-09-06T02:45:09.006Z,100977.63
2022-09-06T02:47:38.026Z,100978.66
2022-09-06T02:50:08.118Z,100974.25
2022-09-06T02:52:35.676Z,100972.59
2022-09-06T02:55:03.289Z,100969.91
2022-09-06T02:57:31.104Z,100971.75
2022-09-06T02:59:58.728Z,100969.06
2022-09-06T03:02:26.436Z,100971.75
2022-09-06T03:04:55.493Z,100963.66
2022-09-06T03:07:23.172Z,100962.81
2022-09-06T03:09:51.480Z,100956.38
2022-09-06T03:12:19.058Z,100957.03
2022-09-06T03:14:46.685Z,100957.88
2022-09-06T03:17:14.262Z,100949.75
2022-09-06T03:19:41.877Z,100939.78
2022-09-06T03:22:10.838Z,100932.72
2022-09-06T03:24:38.606Z,100930.84
2022-09-06T03:27:06.220Z,100929.19
2022-09-06T03:29:33.881Z,100931.88
2022-09-06T03:32:01.476Z,100935.41
2022-09-06T03:34:29.108Z,100937.47
2022-09-06T03:36:56.720Z,100930.78
2022-09-06T03:39:25.796Z,100945.31
2022-09-06T03:41:53.823Z,100935.50
2022-09-06T03:44:21.496Z,100944.66
2022-09-06T03:46:49.191Z,100943.63
2022-09-06T03:49:16.815Z,100949.22
2022-09-06T03:51:44.416Z,100944.66
2022-09-06T03:54:12.056Z,100947.34
2022-09-06T03:56:40.991Z,100949.22
2022-09-06T03:59:08.816Z,100954.44
2022-09-06T04:01:36.455Z,100948.19
2022-09-06T04:04:04.431Z,100950.06
2022-09-06T04:06:31.978Z,100950.06
2022-09-06T04:08:59.763Z,100950.06
2022-09-06T04:11:27.341Z,100941.94
2022-09-06T04:13:56.299Z,100938.63
2022-09-06T04:16:23.982Z,100941.31
2022-09-06T04:18:51.910Z,100952.34
2022-09-06T04:21:19.735Z,100955.22
2022-09-06T04:23:47.342Z,100948.97
2022-09-06T04:26:14.988Z,100952.72
2022-09-06T04:28:42.603Z,100952.25
2022-09-06T04:31:11.624Z,100950.59
2022-09-06T04:33:39.417Z,100940.81
2022-09-06T04:36:09.880Z,100947.25
2022-09-06T04:38:39.286Z,100951.00
2022-09-06T04:41:08.064Z,100947.63
2022-09-06T04:43:35.943Z,100937.44
2022-09-06T04:46:05.792Z,100950.28
2022-09-06T04:48:34.930Z,100951.31
2022-09-06T04:51:02.506Z,100953.56
2022-09-06T04:53:30.150Z,100970.16
2022-09-06T04:55:58.051Z,100983.03
2022-09-06T04:58:25.952Z,100988.59
2022-09-06T05:00:53.793Z,100989.84
2022-09-06T05:03:21.479Z,100991.03
2022-09-06T05:09:07.363Z,101003.28
2022-09-06T05:12:01.394Z,101006.19
2022-09-06T05:14:29.767Z,101004.47
2022-09-06T05:16:57.631Z,100999.09
2022-09-06T05:19:25.947Z,101004.47
2022-09-06T05:21:54.827Z,100998.25
2022-09-06T05:24:22.451Z,100995.13
2022-09-06T05:26:50.085Z,101001.34
2022-09-06T05:29:17.681Z,100995.13
2022-09-06T05:31:45.316Z,101012.34
2022-09-06T05:34:13.442Z,101013.34
2022-09-06T05:36:41.941Z,101010.66
2022-09-06T05:39:10.877Z,101005.44
2022-09-06T05:41:38.462Z,101002.94
2022-09-06T05:44:06.424Z,101006.69
2022-09-06T05:46:34.022Z,101003.16
2022-09-06T05:49:04.751Z,101006.84
2022-09-06T05:51:32.821Z,100999.78
2022-09-06T05:54:00.743Z,100999.97
2022-09-06T05:56:29.716Z,101005.38
2022-09-06T05:58:57.379Z,100999.34
2022-09-06T06:01:27.344Z,101001.56
2022-09-06T06:03:57.007Z,101009.03
2022-09-06T06:06:26.388Z,101011.25
2022-09-06T06:08:54.006Z,101003.44
2022-09-06T06:11:22.196Z,101005.72
2022-09-06T06:13:51.682Z,101019.53
2022-09-06T06:16:22.019Z,101027.34
2022-09-06T06:18:52.461Z,101017.97
2022-09-06T06:21:22.637Z,101008.97
2022-09-06T06:23:51.901Z,100992.50
2022-09-06T06:26:19.683Z,100988.50
2022-09-06T06:28:47.487Z,100983.28
2022-09-06T06:31:16.743Z,101003.38
2022-09-06T06:33:44.564Z,101014.75
2022-09-06T06:36:22.342Z,101003.09
2022-09-06T06:38:52.320Z,100996.84
2022-09-06T06:41:23.857Z,100985.22
2022-09-06T06:43:53.141Z,100985.22
2022-09-06T06:46:23.573Z,100997.88
2022-09-06T06:48:54.727Z,101003.47
2022-09-06T06:51:24.802Z,100988.31
2022-09-06T06:53:52.587Z,100982.72
2022-09-06T06:56:22.536Z,100982.94
2022-09-06T06:58:52.163Z,100985.63
2022-09-06T07:01:22.490Z,100988.31
2022-09-06T07:03:51.143Z,100983.75
2022-09-06T07:06:20.053Z,100978.81
2022-09-06T07:08:48.443Z,100962.91
2022-09-06T07:11:19.473Z,100977.50
2022-09-06T07:13:49.738Z,100989.41
2022-09-06T07:16:20.673Z,100988.03
2022-09-06T07:18:52.498Z,100991.63
2022-09-06T07:21:41.359Z,100982.34
2022-09-06T07:24:09.825Z,100984.44
2022-09-06T07:26:40.219Z,100990.16
2022-09-06T07:29:08.684Z,100991.47
2022-09-06T07:34:27.781Z,100998.59
2022-09-06T07:36:55.863Z,100993.88
2022-09-06T07:39:24.013Z,100991.03
2022-09-06T07:41:52.138Z,100991.75
2022-09-06T07:44:19.757Z,100997.03
2022-09-06T07:46:47.608Z,100998.59
2022-09-06T07:49:15.449Z,101011.84
2022-09-06T07:51:44.986Z,101001.97
2022-09-06T07:54:30.083Z,101001.97
2022-09-06T07:56:58.692Z,101000.09
2022-09-06T07:59:27.429Z,100999.91
2022-09-06T08:01:55.127Z,100999.88
2022-09-06T08:04:22.958Z,101002.47
2022-09-06T08:09:41.181Z,100996.19
2022-09-06T08:12:09.488Z,100994.53
2022-09-06T08:14:37.282Z,101004.09
2022-09-06T08:17:05.410Z,101006.63
2022-09-06T08:19:34.339Z,100999.09
2022-09-06T08:22:03.488Z,100998.91
2022-09-06T08:24:31.662Z,100992.41
2022-09-06T08:26:59.246Z,100991.28
2022-09-06T08:29:27.383Z,100990.84
2022-09-06T08:31:55.064Z,100995.19
2022-09-06T08:34:22.736Z,100993.84
2022-09-06T08:36:50.369Z,100995.28
2022-09-06T08:39:19.339Z,100992.16
2022-09-06T08:41:54.085Z,100993.97
2022-09-06T08:47:13.706Z,100989.16
2022-09-06T08:49:43.464Z,100992.19
2022-09-06T08:52:24.590Z,100986.41
2022-09-06T08:55:05.288Z,100983.91
2022-09-06T08:57:45.559Z,100981.66
2022-09-06T09:00:15.081Z,100984.47
2022-09-06T09:02:47.663Z,100980.72
2022-09-06T09:05:23.014Z,100979.59
2022-09-06T09:08:00.611Z,100970.38
2022-09-06T09:10:32.703Z,100970.75
2022-09-06T09:13:04.916Z,100970.06
2022-09-06T09:15:35.972Z,100965.34
2022-09-06T09:18:06.038Z,100970.97
2022-09-06T09:20:33.716Z,100966.84
2022-09-06T09:23:02.673Z,100966.47
2022-09-06T09:25:33.757Z,100963.75
2022-09-06T09:28:01.566Z,100967.53
2022-09-06T09:30:48.463Z,100962.34
2022-09-06T09:33:25.228Z,100957.06
2022-09-06T09:35:53.252Z,100961.06
2022-09-06T09:38:24.192Z,100965.75
2022-09-06T09:40:55.282Z,100959.81
2022-09-06T09:43:25.169Z,100962.53
2022-09-06T09:46:14.214Z,100957.94
2022-09-06T09:48:45.682Z,100949.56
2022-09-06T09:51:26.202Z,100947.66
2022-09-06T09:53:56.409Z,100941.03
2022-09-06T09:56:31.701Z,100940.22
2022-09-06T09:59:00.855Z,100941.75
2022-09-06T10:01:31.571Z,100952.13
2022-09-06T10:07:08.541Z,100937.56
2022-09-06T10:09:39.283Z,100940.03
2022-09-06T10:12:08.752Z,100937.44
2022-09-06T10:14:42.759Z,100930.56
2022-09-06T10:17:19.848Z,100929.59
2022-09-06T10:19:48.681Z,100934.56
2022-09-06T10:22:27.183Z,100926.13
2022-09-06T10:25:16.478Z,100925.53
2022-09-06T10:28:10.850Z,100918.03
2022-09-06T10:30:45.818Z,100914.38
2022-09-06T10:33:26.084Z,100918.41
2022-09-06T10:35:56.507Z,100913.63
2022-09-06T10:38:35.829Z,100910.16
2022-09-06T10:41:22.479Z,100906.00
2022-09-06T10:43:58.412Z,100909.44
2022-09-06T10:46:28.212Z,100894.97
2022-09-06T10:48:55.967Z,100898.06
2022-09-06T10:51:33.338Z,100898.53
2022-09-06T10:54:06.910Z,100902.84
2022-09-06T10:56:42.295Z,100902.84
2022-09-06T11:02:14.701Z,100898.09
2022-09-06T11:07:34.693Z,100897.84
2022-09-06T11:10:07.715Z,100896.66
2022-09-06T11:12:42.303Z,100897.59
2022-09-06T11:15:14.215Z,100889.13
2022-09-06T11:17:47.987Z,100892.13
2022-09-06T11:20:21.122Z,100883.94
2022-09-06T11:23:23.280Z,100888.53
2022-09-06T11:26:10.905Z,100887.38
2022-09-06T11:28:43.749Z,100894.75
2022-09-06T11:34:21.684Z,100873.94
2022-09-06T11:36:52.437Z,100879.41
2022-09-06T11:42:42.698Z,100873.81
2022-09-06T11:45:21.509Z,100864.44
2022-09-06T11:47:51.975Z,100867.75
2022-09-06T11:50:25.892Z,100865.94
2022-09-06T11:53:02.864Z,100861.16
2022-09-06T11:55:38.603Z,100864.09
2022-09-06T11:58:12.168Z,100859.97
2022-09-06T12:00:39.928Z,100858.97
2022-09-06T12:06:16.503Z,100862.94
2022-09-06T12:08:44.550Z,100854.75
2022-09-06T12:11:35.372Z,100846.66
2022-09-06T12:14:06.076Z,100846.78
2022-09-06T12:17:11.420Z,100849.25
2022-09-06T12:19:46.535Z,100849.34
2022-09-06T12:22:54.194Z,100841.97
2022-09-06T12:25:55.757Z,100831.84
2022-09-06T12:28:28.252Z,100832.78
2022-09-06T12:30:56.111Z,100838.91
2022-09-06T12:33:30.486Z,100835.59
2022-09-06T12:39:00.229Z,100828.56
2022-09-06T12:41:30.664Z,100828.28
2022-09-06T12:44:01.125Z,100821.25
2022-09-06T12:46:31.042Z,100821.56
2022-09-06T12:49:08.281Z,100828.28
2022-09-06T12:51:37.344Z,100820.41
2022-09-06T12:54:21.705Z,100814.44
2022-09-06T12:56:50.469Z,100818.06
2022-09-06T12:59:19.885Z,100814.13
2022-09-06T13:01:53.752Z,100814.22
2022-09-06T13:04:28.436Z,100810.53
2022-09-06T13:06:58.128Z,100811.72
2022-09-06T13:09:29.889Z,100815.59
2022-09-06T13:12:04.865Z,100807.66
2022-09-06T13:14:34.517Z,100809.88
2022-09-06T13:17:02.628Z,100802.91
2022-09-06T13:19:35.938Z,100802.50
2022-09-06T13:22:05.372Z,100798.25
2022-09-06T13:24:47.156Z,100800.59
2022-09-06T13:27:26.210Z,100795.75
2022-09-06T13:29:58.790Z,100797.28
2022-09-06T13:32:27.671Z,100798.97
2022-09-06T13:34:57.750Z,100793.25
2022-09-06T13:37:26.777Z,100790.28
2022-09-06T13:39:57.187Z,100790.66
2022-09-06T13:42:27.778Z,100795.63
2022-09-06T13:45:01.271Z,100797.84
2022-09-06T13:47:30.088Z,100795.13
2022-09-06T13:49:57.685Z,100793.22
2022-09-06T13:52:25.900Z,100785.13
2022-09-06T13:54:54.817Z,100785.97
2022-09-06T13:57:24.657Z,100786.03
2022-09-06T13:59:52.516Z,100787.75
2022-09-06T14:02:20.791Z,100784.50
2022-09-06T14:04:48.569Z,100783.09
2022-09-06T14:07:16.127Z,100783.66
2022-09-06T14:09:44.049Z,100771.84
2022-09-06T14:12:13.047Z,100782.56
2022-09-06T14:14:40.709Z,100777.16
2022-09-06T14:17:08.296Z,100775.00
2022-09-06T14:19:35.928Z,100766.50
2022-09-06T14:22:04.908Z,100775.03
2022-09-06T14:24:32.568Z,100771.50
2022-09-06T14:27:00.309Z,100769.59
2022-09-06T14:29:29.486Z,100770.66
2022-09-06T14:31:57.105Z,100771.00
2022-09-06T14:34:25.649Z,100770.19
2022-09-06T14:36:53.283Z,100780.34
2022-09-06T14:39:21.238Z,100771.00
2022-09-06T14:41:48.832Z,100768.53
2022-09-06T14:44:16.444Z,100766.59
2022-09-06T14:46:47.625Z,100762.19
2022-09-06T14:49:15.751Z,100763.31
2022-09-06T14:51:43.380Z,100766.84
2022-09-06T14:54:12.705Z,100762.16
2022-09-06T14:56:41.795Z,100755.28
2022-09-06T14:59:09.535Z,100750.00
2022-09-06T15:01:38.994Z,100752.19
2022-09-06T15:04:10.520Z,100753.84
2022-09-06T15:06:40.120Z,100750.78
2022-09-06T15:09:10.153Z,100751.56
2022-09-06T15:11:40.264Z,100750.41
2022-09-06T15:14:09.874Z,100741.59
2022-09-06T15:16:37.462Z,100741.59
2022-09-06T15:19:05.252Z,100737.72
2022-09-06T15:21:34.258Z,100733.88
2022-09-06T15:24:02.508Z,100736.84
2022-09-06T15:26:31.045Z,100725.03
2022-09-06T15:28:58.720Z,100720.88
2022-09-06T15:31:27.274Z,100719.50
2022-09-06T15:33:55.318Z,100719.44
2022-09-06T15:36:22.948Z,100721.28
2022-09-06T15:38:54.123Z,100711.09
2022-09-06T15:41:24.791Z,100717.88
2022-09-06T15:43:55.317Z,100715.09
2022-09-06T15:46:45.077Z,100708.75
2022-09-06T15:49:15.417Z,100710.34
2022-09-06T15:51:43.414Z,100705.66
2022-09-06T15:54:14.381Z,100705.28
2022-09-06T15:56:42.058Z,100704.72
2022-09-06T15:59:10.429Z,100709.31
2022-09-06T16:01:38.595Z,100709.03
2022-09-06T16:04:07.125Z,100699.69
2022-09-06T16:06:37.650Z,100701.56
2022-09-06T16:09:08.323Z,100707.25
2022-09-06T16:11:38.060Z,100699.81
2022-09-06T16:14:07.316Z,100699.75
2022-09-06T16:16:35.808Z,100698.06
2022-09-06T16:19:03.941Z,100700.50
2022-09-06T16:21:33.402Z,100701.28
2022-09-06T16:24:03.043Z,100702.56
2022-09-06T16:26:33.915Z,100695.09
2022-09-06T16:29:04.401Z,100696.13
2022-09-06T16:31:39.074Z,100695.53
2022-09-06T16:34:07.914Z,100695.66
2022-09-06T16:36:35.637Z,100692.25
2022-09-06T16:39:03.296Z,100685.81
2022-09-06T16:41:37.330Z,100685.91
2022-09-06T16:44:06.271Z,100692.06
2022-09-06T16:46:34.540Z,100687.88
2022-09-06T16:49:03.021Z,100685.34
2022-09-06T16:51:32.111Z,100687.44
2022-09-06T16:54:01.263Z,100682.97
2022-09-06T16:56:33.142Z,100690.31
2022-09-06T16:59:03.397Z,100695.47
2022-09-06T17:01:33.506Z,100688.84
2022-09-06T17:04:02.379Z,100695.06
2022-09-06T17:06:30.926Z,100692.28
2022-09-06T17:08:59.391Z,100691.34
2022-09-06T17:11:28.794Z,100695.91
2022-09-06T17:13:57.511Z,100688.19
2022-09-06T17:16:43.853Z,100689.72
2022-09-06T17:19:13.836Z,100683.81
2022-09-06T17:21:41.764Z,100692.44
2022-09-06T17:24:09.984Z,100685.44
2022-09-06T17:26:39.152Z,100688.84
2022-09-06T17:29:07.598Z,100694.94
2022-09-06T17:31:35.553Z,100685.50
2022-09-06T17:34:03.653Z,100691.34
2022-09-06T17:36:33.799Z,100696.63
2022-09-06T17:39:02.744Z,100690.97
2022-09-06T17:41:36.696Z,100696.47
2022-09-06T17:44:05.558Z,100697.56
2022-09-06T17:46:33.506Z,100696.97
2022-09-06T17:49:01.675Z,100698.31
2022-09-06T17:51:29.533Z,100707.09
2022-09-06T17:53:59.327Z,100711.28
2022-09-06T17:56:27.206Z,100716.72
2022-09-06T17:58:56.261Z,100720.25
2022-09-06T18:01:25.444Z,100721.91
2022-09-06T18:03:53.661Z,100720.81
2022-09-06T18:06:23.546Z,100719.38
2022-09-06T18:08:52.987Z,100718.28
2022-09-06T18:11:24.209Z,100713.88
2022-09-06T18:13:56.491Z,100714.06
2022-09-06T18:16:25.040Z,100711.28
2022-09-06T18:18:54.448Z,100713.72
2022-09-06T18:21:22.964Z,100718.69
2022-09-06T18:23:51.083Z,100719.22
2022-09-06T18:26:19.260Z,100716.19
2022-09-06T18:28:48.210Z,100724.28
2022-09-06T18:31:19.301Z,100722.09
2022-09-06T18:33:47.425Z,100721.53
2022-09-06T18:36:16.405Z,100726.66
2022-09-06T18:38:44.997Z,100728.84
2022-09-06T18:41:35.009Z,100733.75
2022-09-06T18:44:05.617Z,100731.78
2022-09-06T18:46:36.431Z,100731.44
2022-09-06T18:49:04.853Z,100732.72
2022-09-06T18:51:33.102Z,100727.00
2022-09-06T18:54:02.440Z,100730.19
2022-09-06T18:56:30.157Z,100732.13
2022-09-06T18:58:59.778Z,100735.31
2022-09-06T19:01:30.660Z,100725.56
2022-09-06T19:03:59.206Z,100733.75
2022-09-06T19:06:28.761Z,100731.09
2022-09-06T19:08:59.433Z,100733.22
2022-09-06T19:11:27.563Z,100728.84
2022-09-06T19:13:57.007Z,100725.34
2022-09-06T19:16:26.619Z,100711.81
2022-09-06T19:18:56.722Z,100718.31
2022-09-06T19:21:27.436Z,100717.50
2022-09-06T19:23:57.800Z,100713.78
2022-09-06T19:26:27.048Z,100711.31
2022-09-06T19:28:56.654Z,100718.00
2022-09-06T19:31:25.738Z,100720.53
2022-09-06T19:33:55.398Z,100707.84
2022-09-06T19:36:24.611Z,100702.03
2022-09-06T19:39:04.504Z,100702.66
2022-09-06T19:41:33.632Z,100697.66
2022-09-06T19:44:01.601Z,100698.06
2022-09-06T19:46:29.376Z,100695.16
2022-09-06T19:48:58.804Z,100689.53
2022-09-06T19:51:26.596Z,100692.69
2022-09-06T19:53:57.512Z,100680.59
2022-09-06T19:56:27.615Z,100679.56
2022-09-06T19:58:57.209Z,100683.72
2022-09-06T20:01:26.560Z,100671.25
2022-09-06T20:03:54.544Z,100666.28
2022-09-06T20:06:23.830Z,100678.78
2022-09-06T20:08:52.403Z,100660.44
2022-09-06T20:11:21.398Z,100664.00
2022-09-06T20:13:49.401Z,100662.53
2022-09-06T20:16:20.587Z,100655.06
2022-09-06T20:18:48.911Z,100645.47
2022-09-06T20:21:18.405Z,100638.84
2022-09-06T20:23:51.031Z,100640.91
2022-09-06T20:26:19.720Z,100635.69
2022-09-06T20:28:47.615Z,100635.69
2022-09-06T20:31:18.119Z,100629.69
2022-09-06T20:33:49.616Z,100635.09
2022-09-06T20:36:19.278Z,100644.22
2022-09-06T20:38:48.607Z,100636.09
2022-09-06T20:41:19.681Z,100640.69
2022-09-06T20:43:51.978Z,100640.69
2022-09-06T20:46:21.531Z,100638.19
2022-09-06T20:48:49.743Z,100641.94
2022-09-06T20:51:19.947Z,100650.06
2022-09-06T20:53:52.060Z,100645.72
2022-09-06T20:56:23.509Z,100641.50
2022-09-06T20:58:52.584Z,100637.97
2022-09-06T21:01:22.693Z,100629.22
2022-09-06T21:03:52.610Z,100623.81
2022-09-06T21:06:21.473Z,100609.66
2022-09-06T21:08:50.333Z,100608.81
2022-09-06T21:11:18.586Z,100614.66
2022-09-06T21:13:51.295Z,100625.06
2022-09-06T21:16:24.338Z,100620.06
2022-09-06T21:18:53.429Z,100624.84
2022-09-06T21:21:22.162Z,100619.25
2022-09-06T21:23:50.279Z,100625.06
2022-09-06T21:26:18.409Z,100626.31
2022-09-06T21:28:47.541Z,100631.28
2022-09-06T21:31:18.409Z,100630.69
2022-09-06T21:33:48.121Z,100625.66
2022-09-06T21:36:17.590Z,100622.34
2022-09-06T21:38:47.454Z,100631.06
2022-09-06T21:41:17.029Z,100635.88
2022-09-06T21:43:45.115Z,100628.97
2022-09-06T21:46:14.205Z,100629.41
2022-09-06T21:48:44.993Z,100624.41
2022-09-06T21:51:14.509Z,100630.22
2022-09-06T21:53:43.412Z,100628.56
2022-09-06T21:56:11.572Z,100629.81
2022-09-06T21:58:39.963Z,100628.97
2022-09-06T22:01:08.848Z,100631.06
2022-09-06T22:03:39.044Z,100626.69
2022-09-06T22:06:15.125Z,100633.09
2022-09-06T22:08:43.772Z,100636.63
2022-09-06T22:11:13.018Z,100651.03
2022-09-06T22:13:40.707Z,100649.53
2022-09-06T22:16:09.282Z,100641.03
2022-09-06T22:18:37.332Z,100642.25
2022-09-06T22:21:07.730Z,100644.94
2022-09-06T22:23:37.216Z,100638.72
2022-09-06T22:26:06.422Z,100642.66
2022-09-06T22:28:35.133Z,100630.00
2022-09-06T22:31:04.040Z,100628.28
2022-09-06T22:33:32.099Z,100629.34
2022-09-06T22:36:00.495Z,100626.63
2022-09-06T22:38:28.379Z,100622.28
2022-09-06T22:40:58.345Z,100614.38
2022-09-06T22:43:26.849Z,100600.03
2022-09-06T22:45:54.714Z,100581.13
2022-09-06T22:48:22.324Z,100561.38
2022-09-06T22:50:50.431Z,100557.97
2022-09-06T22:53:18.968Z,100552.19
2022-09-06T22:55:48.324Z,100548.00
2022-09-06T22:58:23.001Z,100547.38
2022-09-06T23:00:51.211Z,100559.44
2022-09-06T23:03:18.846Z,100558.78
2022-09-06T23:05:47.254Z,100558.19
2022-09-06T23:08:17.078Z,100569.19
2022-09-06T23:10:45.019Z,100565.84
2022-09-06T23:13:13.076Z,100577.06
2022-09-06T23:15:42.322Z,100573.53
2022-09-06T23:18:09.978Z,100571.88
2022-09-06T23:20:37.747Z,100575.59
2022-09-06T23:23:56.195Z,100565.00
2022-09-06T23:26:25.687Z,100560.84
2022-09-06T23:28:56.364Z,100551.91
2022-09-06T23:31:27.357Z,100554.63
2022-09-06T23:33:56.860Z,100549.00
2022-09-06T23:36:24.811Z,100542.97
2022-09-06T23:38:52.483Z,100535.72
2022-09-06T23:41:20.270Z,100534.03
2022-09-06T23:43:48.016Z,100533.00
2022-09-06T23:46:15.989Z,100544.81
2022-09-06T23:48:45.019Z,100554.81
2022-09-06T23:51:13.511Z,100556.47
2022-09-06T23:53:41.440Z,100553.75
2022-09-06T23:56:09.442Z,100555.25
2022-09-06T23:58:37.833Z,100558.16
